Time;durP1;ratioP1;P1;durP2;ratioP2;P2;SDS_P1;SDS_P2;PMS_P1;PMS_P2;Temp;Humidity;BMP_temperature;BMP_pressure;BME280_temperature;BME280_humidity;BME280_pressure;Samples;Min_cycle;Max_cycle;Signal;HPM_P1;HPM_P2
2023/12/24 00:01:38;;;;;;;3.33;2.47;;;4.00;1.00;;;;;;5065415;28;20698;-67
2023/12/24 00:04:04;;;;;;;3.00;1.83;;;4.00;1.00;;;;;;5069316;28;20307;-68
2023/12/24 00:06:30;;;;;;;6.53;2.93;;;4.00;1.00;;;;;;5054060;28;20502;-69
2023/12/24 00:08:55;;;;;;;4.77;2.20;;;3.70;1.00;;;;;;5055615;28;20460;-65
2023/12/24 00:11:21;;;;;;;3.40;3.10;;;3.90;1.00;;;;;;5055955;28;20569;-64
2023/12/24 00:13:47;;;;;;;2.90;2.30;;;3.80;1.00;;;;;;5061469;28;20182;-65
2023/12/24 00:16:12;;;;;;;8.70;2.73;;;3.70;1.00;;;;;;5064130;28;20240;-70
2023/12/24 00:18:38;;;;;;;4.00;3.03;;;3.70;1.00;;;;;;5055691;28;20563;-67
2023/12/24 00:21:04;;;;;;;2.93;2.60;;;3.90;1.00;;;;;;5055990;28;20174;-67
2023/12/24 00:23:30;;;;;;;2.80;2.50;;;3.60;1.00;;;;;;5054829;28;20598;-68
2023/12/24 00:25:55;;;;;;;3.20;2.63;;;3.70;1.00;;;;;;5054581;28;20442;-69
2023/12/24 00:28:21;;;;;;;4.00;3.30;;;3.60;1.00;;;;;;5054119;28;20202;-67
2023/12/24 00:30:47;;;;;;;2.83;2.60;;;3.80;1.00;;;;;;5058017;28;20180;-67
2023/12/24 00:33:12;;;;;;;3.50;2.40;;;3.80;1.00;;;;;;5075301;28;20527;-64
2023/12/24 00:35:38;;;;;;;2.87;2.67;;;3.70;1.00;;;;;;5074361;28;20176;-65
2023/12/24 00:38:04;;;;;;;2.77;2.53;;;3.60;1.00;;;;;;5075212;28;20650;-65
2023/12/24 00:40:30;;;;;;;3.63;3.33;;;3.50;1.00;;;;;;5074539;28;20628;-67
2023/12/24 00:42:56;;;;;;;2.80;2.07;;;3.60;1.00;;;;;;5071315;28;20177;-66
2023/12/24 00:45:22;;;;;;;2.90;2.43;;;3.50;1.00;;;;;;5054271;28;20952;-70
2023/12/24 00:47:48;;;;;;;3.93;2.23;;;3.60;1.00;;;;;;5054892;28;20199;-64
2023/12/24 00:50:14;;;;;;;3.80;3.20;;;3.50;1.00;;;;;;5053900;28;20414;-65
2023/12/24 00:52:39;;;;;;;3.50;2.27;;;3.30;1.00;;;;;;5054954;28;20651;-68
2023/12/24 00:55:05;;;;;;;3.57;3.00;;;3.20;1.00;;;;;;5053963;28;20199;-64
2023/12/24 00:57:31;;;;;;;6.27;2.20;;;3.50;1.00;;;;;;5056709;28;20197;-67
2023/12/24 00:59:57;;;;;;;2.53;2.33;;;3.60;1.00;;;;;;5074216;28;20414;-64
2023/12/24 01:02:22;;;;;;;3.83;2.40;;;3.60;1.00;;;;;;5060478;28;20191;-68
2023/12/24 01:04:48;;;;;;;3.03;2.73;;;3.60;1.00;;;;;;5053245;28;20197;-69
2023/12/24 01:07:15;;;;;;;2.20;2.10;;;3.30;1.00;;;;;;5053506;28;20224;-67
2023/12/24 01:09:41;;;;;;;2.43;2.23;;;3.70;1.00;;;;;;5054557;28;20258;-68
2023/12/24 01:12:06;;;;;;;2.00;1.90;;;3.50;1.00;;;;;;5067074;28;20502;-68
2023/12/24 01:14:32;;;;;;;2.80;2.27;;;3.40;1.00;;;;;;5073654;28;20175;-74
2023/12/24 01:16:59;;;;;;;4.60;2.40;;;3.50;1.00;;;;;;5073127;28;20185;-64
2023/12/24 01:19:26;;;;;;;6.43;2.73;;;3.40;1.00;;;;;;5074182;28;20823;-65
2023/12/24 01:21:54;;;;;;;3.20;1.83;;;3.50;1.00;;;;;;5073029;28;20427;-68
2023/12/24 01:24:20;;;;;;;2.50;2.40;;;3.50;1.00;;;;;;5074333;28;20456;-68
2023/12/24 01:26:46;;;;;;;3.30;2.10;;;3.60;1.00;;;;;;5073355;28;20438;-69
2023/12/24 01:29:11;;;;;;;2.33;2.13;;;3.10;1.00;;;;;;5074167;28;20196;-68
2023/12/24 01:31:40;;;;;;;4.57;2.30;;;3.50;1.00;;;;;;5073112;28;20238;-68
2023/12/24 01:34:06;;;;;;;2.33;2.20;;;3.40;1.00;;;;;;5072734;28;20211;-65
2023/12/24 01:36:31;;;;;;;4.20;2.97;;;3.40;1.00;;;;;;5072773;28;20444;-68
2023/12/24 01:38:57;;;;;;;2.33;2.10;;;3.50;1.00;;;;;;5070614;28;20658;-68
2023/12/24 01:41:23;;;;;;;2.23;2.03;;;3.40;1.00;;;;;;5052825;28;20605;-69
2023/12/24 01:43:49;;;;;;;5.03;2.43;;;3.50;1.00;;;;;;5054073;28;20627;-64
2023/12/24 01:46:20;;;;;;;2.50;1.97;;;3.30;1.00;;;;;;5054538;28;20654;-64
2023/12/24 01:48:46;;;;;;;2.40;2.20;;;3.00;1.00;;;;;;5073680;28;20433;-70
2023/12/24 01:51:12;;;;;;;2.23;2.13;;;3.20;1.00;;;;;;5053770;28;20415;-69
2023/12/24 01:53:39;;;;;;;3.83;2.30;;;3.50;1.00;;;;;;5033754;28;20410;-65
2023/12/24 01:56:05;;;;;;;4.93;2.53;;;3.40;1.00;;;;;;5032718;28;20406;-65
2023/12/24 01:58:31;;;;;;;2.30;2.20;;;3.40;1.00;;;;;;5033732;28;20427;-65
2023/12/24 02:00:57;;;;;;;2.63;2.43;;;3.30;1.00;;;;;;5041790;28;20552;-68
2023/12/24 02:03:23;;;;;;;2.47;2.37;;;3.30;3.10;;;;;;5073547;28;20541;-68
2023/12/24 02:05:50;;;;;;;2.73;2.63;;;3.30;15.40;;;;;;5072757;28;20178;-66
2023/12/24 02:08:21;;;;;;;2.20;2.10;;;3.20;25.10;;;;;;5072806;28;20495;-64
2023/12/24 02:10:50;;;;;;;2.20;2.10;;;3.50;33.20;;;;;;5071671;28;20960;-67
2023/12/24 02:13:17;;;;;;;2.40;2.30;;;3.40;47.70;;;;;;5073221;28;20412;-65
2023/12/24 02:15:45;;;;;;;2.40;2.30;;;3.10;56.90;;;;;;5072559;28;20881;-66
2023/12/24 02:18:11;;;;;;;2.83;2.63;;;2.90;63.50;;;;;;5053873;28;20438;-64
2023/12/24 02:20:38;;;;;;;2.60;2.40;;;3.40;76.00;;;;;;5053356;28;20409;-64
2023/12/24 02:23:04;;;;;;;2.40;2.20;;;3.30;80.70;;;;;;5053258;28;20411;-65
2023/12/24 02:25:31;;;;;;;2.60;2.47;;;3.40;91.80;;;;;;5052188;28;20972;-65
2023/12/24 02:28:14;;;;;;;2.70;2.60;;;3.20;98.50;;;;;;5052836;28;20457;-64
2023/12/24 02:30:44;;;;;;;2.33;2.23;;;3.40;99.90;;;;;;5052591;28;20410;-65
2023/12/24 02:33:12;;;;;;;3.60;3.10;;;3.50;99.90;;;;;;5053203;28;20408;-66
2023/12/24 02:35:39;;;;;;;2.50;2.40;;;3.30;99.90;;;;;;5050978;28;20469;-66
2023/12/24 02:38:05;;;;;;;2.10;2.00;;;3.50;99.90;;;;;;5052907;28;20518;-64
2023/12/24 02:40:31;;;;;;;2.67;2.57;;;3.40;99.90;;;;;;5051714;28;20889;-66
2023/12/24 02:42:56;;;;;;;3.07;2.90;;;3.50;99.90;;;;;;5052932;28;20652;-65
2023/12/24 02:45:22;;;;;;;2.73;2.63;;;3.30;99.90;;;;;;5052315;28;20235;-67
2023/12/24 02:47:48;;;;;;;2.60;2.50;;;3.40;99.90;;;;;;5072128;28;20214;-65
2023/12/24 02:50:18;;;;;;;2.70;2.60;;;3.60;99.90;;;;;;5072828;28;20265;-65
2023/12/24 02:52:44;;;;;;;2.70;2.60;;;3.30;99.90;;;;;;5073091;28;20255;-68
2023/12/24 02:55:10;;;;;;;2.57;2.47;;;3.60;99.90;;;;;;5070861;28;20808;-66
2023/12/24 02:57:36;;;;;;;2.97;2.70;;;3.60;99.90;;;;;;5071632;28;20432;-65
2023/12/24 03:00:04;;;;;;;2.80;2.70;;;3.60;99.90;;;;;;5059789;28;20433;-66
2023/12/24 03:02:31;;;;;;;2.90;2.70;;;3.40;99.90;;;;;;5053336;28;20183;-65
2023/12/24 03:04:57;;;;;;;3.00;2.80;;;3.60;99.90;;;;;;5050123;28;20461;-67
2023/12/24 03:07:23;;;;;;;3.30;3.10;;;3.50;99.90;;;;;;5052556;28;20447;-67
2023/12/24 03:09:48;;;;;;;3.40;3.20;;;3.70;99.90;;;;;;5052654;28;20179;-64
2023/12/24 03:12:14;;;;;;;3.13;3.00;;;3.60;99.90;;;;;;5060937;28;20178;-65
2023/12/24 03:14:40;;;;;;;3.73;3.53;;;3.60;99.90;;;;;;5071849;28;20197;-65
2023/12/24 03:17:06;;;;;;;2.80;2.70;;;3.60;99.90;;;;;;5071471;28;20410;-65
2023/12/24 03:19:34;;;;;;;3.30;3.10;;;3.60;99.90;;;;;;5072763;28;20662;-65
2023/12/24 03:22:00;;;;;;;3.10;2.90;;;3.80;99.90;;;;;;5072324;28;20635;-64
2023/12/24 03:24:26;;;;;;;2.77;2.67;;;3.90;99.90;;;;;;5070705;28;20455;-64
2023/12/24 03:26:52;;;;;;;2.77;2.67;;;4.00;99.90;;;;;;5070916;28;20203;-65
2023/12/24 03:29:18;;;;;;;3.33;3.13;;;4.00;99.90;;;;;;5072728;28;20181;-64
2023/12/24 03:31:43;;;;;;;3.20;3.00;;;3.90;99.90;;;;;;5071686;28;20180;-67
2023/12/24 03:34:09;;;;;;;3.00;2.80;;;4.00;1.00;;;;;;5072530;28;20272;-63
2023/12/24 03:36:35;;;;;;;3.40;3.20;;;4.10;1.00;;;;;;5071552;28;20181;-63
2023/12/24 03:39:01;;;;;;;3.70;3.50;;;4.30;1.00;;;;;;5072065;28;20473;-64
2023/12/24 03:41:27;;;;;;;2.97;2.87;;;4.30;1.00;;;;;;5072436;28;20565;-65
2023/12/24 03:43:53;;;;;;;3.70;3.50;;;4.20;1.00;;;;;;5072020;28;20447;-67
2023/12/24 03:46:19;;;;;;;3.63;3.43;;;4.30;1.00;;;;;;5060254;28;20173;-64
2023/12/24 03:48:45;;;;;;;3.97;3.57;;;4.40;1.00;;;;;;5052328;28;20239;-66
2023/12/24 03:51:11;;;;;;;3.50;3.30;;;4.40;1.00;;;;;;5052460;28;20401;-64
2023/12/24 03:53:37;;;;;;;3.97;3.67;;;4.50;1.00;;;;;;5052229;28;20732;-65
2023/12/24 03:56:04;;;;;;;4.53;4.13;;;4.60;1.00;;;;;;5050777;28;20416;-66
2023/12/24 03:58:30;;;;;;;4.53;4.23;;;4.70;1.00;;;;;;5052162;28;20478;-64
2023/12/24 04:00:55;;;;;;;4.40;4.10;;;4.80;1.00;;;;;;5051126;28;20427;-64
2023/12/24 04:03:21;;;;;;;4.17;3.80;;;4.80;1.00;;;;;;5051824;28;20191;-65
2023/12/24 04:05:47;;;;;;;3.80;3.50;;;5.00;1.00;;;;;;5051251;28;20213;-65
2023/12/24 04:08:14;;;;;;;5.27;4.77;;;5.10;1.00;;;;;;5053411;28;20182;-65
2023/12/24 04:10:40;;;;;;;4.23;3.83;;;5.10;1.00;;;;;;5054873;28;20666;-64
2023/12/24 04:13:06;;;;;;;4.33;4.03;;;5.10;1.00;;;;;;5055363;28;20398;-66
2023/12/24 04:15:33;;;;;;;5.33;4.87;;;5.20;1.00;;;;;;5058365;28;20158;-64
2023/12/24 04:17:59;;;;;;;4.67;4.27;;;5.40;1.00;;;;;;5075717;28;20420;-64
2023/12/24 04:20:24;;;;;;;4.30;4.00;;;5.40;1.00;;;;;;5075202;28;20496;-64
2023/12/24 04:22:50;;;;;;;4.70;4.30;;;5.60;1.00;;;;;;5075369;28;20397;-64
2023/12/24 04:25:16;;;;;;;2.87;2.70;;;5.80;1.00;;;;;;5074623;28;20206;-64
2023/12/24 04:27:42;;;;;;;3.20;3.00;;;6.10;1.00;;;;;;5066275;28;20190;-64
2023/12/24 04:30:08;;;;;;;2.60;2.40;;;6.50;1.00;;;;;;5055087;28;20602;-67
2023/12/24 04:32:33;;;;;;;2.80;2.60;;;6.70;1.00;;;;;;5054968;28;20217;-65
2023/12/24 04:35:00;;;;;;;2.40;2.30;;;6.90;1.00;;;;;;5054575;28;20798;-64
2023/12/24 04:37:26;;;;;;;2.30;2.20;;;7.20;1.00;;;;;;5053688;28;20316;-68
2023/12/24 04:39:51;;;;;;;2.00;1.90;;;7.30;1.00;;;;;;5055165;28;20507;-65
2023/12/24 04:42:17;;;;;;;2.07;1.97;;;7.50;1.00;;;;;;5055091;28;20176;-64
2023/12/24 04:44:43;;;;;;;1.80;1.70;;;7.50;1.00;;;;;;5054360;28;20195;-66
2023/12/24 04:47:09;;;;;;;2.17;2.07;;;7.60;1.00;;;;;;5072302;28;20190;-63
2023/12/24 04:49:35;;;;;;;1.70;1.60;;;7.70;1.00;;;;;;5074952;28;20881;-64
2023/12/24 04:52:00;;;;;;;1.90;1.80;;;7.80;1.00;;;;;;5074921;28;20260;-64
2023/12/24 04:54:27;;;;;;;1.70;1.60;;;7.80;1.00;;;;;;5074422;28;20386;-67
2023/12/24 04:56:53;;;;;;;1.97;1.50;;;7.90;1.00;;;;;;5055925;28;20262;-64
2023/12/24 04:59:18;;;;;;;1.40;1.30;;;7.90;1.00;;;;;;5054922;28;20548;-65
2023/12/24 05:01:44;;;;;;;2.03;1.93;;;8.00;1.00;;;;;;5066524;28;20671;-65
2023/12/24 05:04:10;;;;;;;1.70;1.60;;;7.90;1.00;;;;;;5074873;28;20261;-64
2023/12/24 05:06:35;;;;;;;1.90;1.80;;;8.00;1.00;;;;;;5073787;28;20251;-67
2023/12/24 05:09:01;;;;;;;1.70;1.60;;;8.00;1.00;;;;;;5074355;28;20198;-64
2023/12/24 05:11:27;;;;;;;1.73;1.63;;;8.00;1.00;;;;;;5074668;28;20167;-66
2023/12/24 05:13:52;;;;;;;2.03;1.90;;;8.10;1.00;;;;;;5074327;28;20179;-65
2023/12/24 05:16:18;;;;;;;1.70;1.60;;;8.00;1.00;;;;;;5072642;28;20178;-68
2023/12/24 05:18:45;;;;;;;1.73;1.63;;;8.10;1.00;;;;;;5074199;28;20229;-66
2023/12/24 05:21:10;;;;;;;1.80;1.70;;;8.10;1.00;;;;;;5073772;28;20162;-65
2023/12/24 05:23:36;;;;;;;2.83;1.83;;;8.10;1.00;;;;;;5067243;28;20485;-65
2023/12/24 05:26:02;;;;;;;1.70;1.60;;;8.20;1.00;;;;;;5053141;28;20191;-65
2023/12/24 05:28:28;;;;;;;2.20;2.00;;;8.10;1.00;;;;;;5052774;28;20214;-67
2023/12/24 05:30:53;;;;;;;1.90;1.80;;;8.20;1.00;;;;;;5058091;28;20411;-66
2023/12/24 05:33:19;;;;;;;1.90;1.80;;;8.20;1.00;;;;;;5074426;28;20168;-65
2023/12/24 05:35:45;;;;;;;2.20;2.10;;;8.10;1.00;;;;;;5073391;28;20171;-65
2023/12/24 05:38:10;;;;;;;1.90;1.80;;;8.20;2.70;;;;;;5072340;28;20201;-65
2023/12/24 05:40:36;;;;;;;2.83;1.87;;;8.20;4.20;;;;;;5071851;28;20172;-64
2023/12/24 05:43:02;;;;;;;2.10;2.00;;;8.20;4.60;;;;;;5072420;28;20167;-65
2023/12/24 05:45:28;;;;;;;2.07;1.90;;;8.30;5.80;;;;;;5072209;28;20257;-67
2023/12/24 05:47:54;;;;;;;2.43;2.23;;;8.20;6.40;;;;;;5033859;28;20431;-64
2023/12/24 05:50:21;;;;;;;3.43;1.77;;;8.30;7.10;;;;;;5033628;28;20940;-64
2023/12/24 05:52:46;;;;;;;1.97;1.87;;;8.30;7.30;;;;;;5033855;28;20922;-67
2023/12/24 05:55:12;;;;;;;3.07;1.93;;;8.30;7.30;;;;;;5033119;28;20490;-66
2023/12/24 05:57:38;;;;;;;2.03;1.93;;;8.30;7.80;;;;;;5040613;28;20716;-64
2023/12/24 06:00:05;;;;;;;1.90;1.80;;;8.30;7.30;;;;;;5034008;28;20251;-66
2023/12/24 06:02:30;;;;;;;2.53;2.00;;;8.30;7.30;;;;;;5053104;28;20186;-64
2023/12/24 06:04:56;;;;;;;2.07;1.97;;;8.30;7.50;;;;;;5052471;28;20441;-69
2023/12/24 06:07:22;;;;;;;1.93;1.67;;;8.40;11.30;;;;;;5052976;28;20211;-65
2023/12/24 06:09:47;;;;;;;2.17;2.07;;;8.40;11.50;;;;;;5053590;28;20239;-65
2023/12/24 06:12:13;;;;;;;1.90;1.80;;;8.40;11.60;;;;;;5053534;28;20164;-67
2023/12/24 06:14:39;;;;;;;2.33;1.90;;;8.40;12.00;;;;;;5052610;28;20184;-68
2023/12/24 06:17:05;;;;;;;1.97;1.87;;;8.40;12.10;;;;;;5066430;28;20439;-65
2023/12/24 06:19:30;;;;;;;1.77;1.67;;;8.30;12.20;;;;;;5073176;28;20226;-64
2023/12/24 06:22:00;;;;;;;1.67;1.57;;;8.40;13.10;;;;;;5073315;28;20171;-65
2023/12/24 06:24:26;;;;;;;2.10;1.87;;;8.40;13.70;;;;;;5072551;28;20241;-64
2023/12/24 06:26:51;;;;;;;1.30;1.20;;;8.40;15.30;;;;;;5072256;28;20822;-65
2023/12/24 06:29:18;;;;;;;1.57;1.47;;;8.40;16.90;;;;;;5073235;28;20167;-65
2023/12/24 06:31:44;;;;;;;1.93;1.30;;;8.50;19.50;;;;;;5070779;28;20171;-65
2023/12/24 06:34:11;;;;;;;1.90;1.77;;;8.50;19.50;;;;;;5072897;28;20427;-64
2023/12/24 06:36:37;;;;;;;2.10;1.90;;;8.50;19.90;;;;;;5071408;28;20185;-64
2023/12/24 06:39:03;;;;;;;1.53;1.43;;;8.50;21.70;;;;;;5073020;28;20426;-65
2023/12/24 06:41:28;;;;;;;1.60;1.50;;;8.50;22.30;;;;;;5072985;28;20412;-64
2023/12/24 06:43:54;;;;;;;1.40;1.30;;;8.50;22.20;;;;;;5072603;28;20291;-64
2023/12/24 06:46:20;;;;;;;2.13;1.23;;;8.50;22.80;;;;;;5059211;28;20254;-68
2023/12/24 06:48:46;;;;;;;1.80;1.70;;;8.50;25.30;;;;;;5052858;28;20183;-68
2023/12/24 06:51:12;;;;;;;1.40;1.30;;;8.60;27.70;;;;;;5051666;28;20465;-68
2023/12/24 06:53:38;;;;;;;1.50;1.40;;;8.70;29.60;;;;;;5052097;28;20221;-68
2023/12/24 06:56:04;;;;;;;1.30;1.20;;;8.70;29.50;;;;;;5051820;28;20899;-70
2023/12/24 06:58:30;;;;;;;1.30;1.20;;;8.70;28.90;;;;;;5052826;28;20690;-68
2023/12/24 07:00:55;;;;;;;1.40;1.30;;;8.70;27.80;;;;;;5053199;28;20894;-67
2023/12/24 07:03:21;;;;;;;1.20;1.10;;;8.70;26.70;;;;;;5052120;28;20416;-67
2023/12/24 07:05:47;;;;;;;1.30;1.20;;;8.60;25.40;;;;;;5050638;28;20579;-64
2023/12/24 07:08:13;;;;;;;1.40;1.30;;;8.70;24.80;;;;;;5052733;28;20269;-69
2023/12/24 07:10:39;;;;;;;1.40;1.30;;;8.70;25.40;;;;;;5052803;28;20169;-64
2023/12/24 07:13:04;;;;;;;1.30;1.20;;;8.70;25.40;;;;;;5052291;28;20669;-66
2023/12/24 07:15:31;;;;;;;1.43;1.20;;;8.70;25.50;;;;;;5060545;28;20455;-65
2023/12/24 07:17:57;;;;;;;1.33;1.23;;;8.70;25.50;;;;;;5072258;28;20206;-66
2023/12/24 07:20:23;;;;;;;1.40;1.30;;;8.80;25.60;;;;;;5072588;28;20771;-65
2023/12/24 07:22:49;;;;;;;1.30;1.20;;;8.70;26.70;;;;;;5072583;28;20623;-70
2023/12/24 07:25:15;;;;;;;1.40;1.30;;;8.70;26.60;;;;;;5071857;28;20546;-65
2023/12/24 07:27:43;;;;;;;1.40;1.30;;;8.80;27.70;;;;;;5072428;28;20197;-64
2023/12/24 07:30:10;;;;;;;1.33;1.23;;;8.80;29.30;;;;;;5063777;28;20179;-64
2023/12/24 07:32:35;;;;;;;1.13;1.03;;;8.80;29.90;;;;;;5051933;28;20949;-64
2023/12/24 07:35:02;;;;;;;1.40;1.30;;;8.80;31.10;;;;;;5050357;28;20930;-64
2023/12/24 07:37:28;;;;;;;1.30;1.20;;;8.90;31.50;;;;;;5050376;28;20449;-65
2023/12/24 07:39:53;;;;;;;1.50;1.40;;;8.80;31.50;;;;;;5049068;28;20657;-67
2023/12/24 07:42:19;;;;;;;1.40;1.30;;;8.90;31.70;;;;;;5052417;28;20268;-64
2023/12/24 07:44:47;;;;;;;1.50;1.40;;;8.80;31.50;;;;;;5068239;28;20219;-66
2023/12/24 07:47:12;;;;;;;1.47;1.37;;;8.90;31.80;;;;;;5075058;28;20194;-64
2023/12/24 07:49:38;;;;;;;1.40;1.30;;;8.90;31.90;;;;;;5074506;28;20372;-66
2023/12/24 07:52:04;;;;;;;1.87;1.57;;;8.90;32.50;;;;;;5055686;28;20172;-67
2023/12/24 07:54:30;;;;;;;1.50;1.40;;;8.90;32.20;;;;;;5055529;28;20178;-75
2023/12/24 07:56:55;;;;;;;1.43;1.33;;;8.90;33.20;;;;;;5055590;28;20383;-65
2023/12/24 07:59:21;;;;;;;1.50;1.40;;;8.90;33.90;;;;;;5067211;28;20203;-65
2023/12/24 08:01:46;;;;;;;1.40;1.30;;;8.90;34.00;;;;;;5072061;28;20179;-66
2023/12/24 08:04:12;;;;;;;1.17;1.07;;;8.90;34.10;;;;;;5038476;28;20203;-66
2023/12/24 08:06:38;;;;;;;2.60;1.80;;;9.00;34.80;;;;;;5049858;28;20177;-67
2023/12/24 08:09:03;;;;;;;1.70;1.60;;;9.00;36.60;;;;;;5055608;28;20193;-64
2023/12/24 08:11:29;;;;;;;1.30;1.20;;;9.00;38.20;;;;;;5054261;28;20183;-65
2023/12/24 08:13:55;;;;;;;1.40;1.30;;;9.00;39.50;;;;;;5061306;28;20189;-65
2023/12/24 08:16:20;;;;;;;1.60;1.50;;;9.00;39.90;;;;;;5074780;28;20194;-67
2023/12/24 08:18:46;;;;;;;3.00;1.73;;;9.00;40.10;;;;;;5075453;28;20196;-65
2023/12/24 08:21:12;;;;;;;1.50;1.40;;;9.00;40.70;;;;;;5075797;28;20179;-64
2023/12/24 08:23:40;;;;;;;1.40;1.30;;;9.00;40.70;;;;;;5075547;28;20240;-64
2023/12/24 08:26:06;;;;;;;1.37;1.27;;;9.00;41.40;;;;;;5074234;28;20186;-65
2023/12/24 08:28:31;;;;;;;1.60;1.30;;;9.10;42.90;;;;;;5074312;28;20433;-65
2023/12/24 08:30:57;;;;;;;1.60;1.50;;;9.10;44.50;;;;;;5073983;28;20179;-65
2023/12/24 08:33:23;;;;;;;1.67;1.57;;;9.10;45.10;;;;;;5075647;28;20169;-66
2023/12/24 08:35:49;;;;;;;1.90;1.70;;;9.10;46.20;;;;;;5073299;28;20426;-64
2023/12/24 08:38:14;;;;;;;1.60;1.50;;;9.10;46.40;;;;;;5075047;28;20193;-65
2023/12/24 08:40:40;;;;;;;6.60;1.63;;;9.10;46.70;;;;;;5075315;28;20174;-68
2023/12/24 08:43:06;;;;;;;2.03;1.70;;;9.20;48.40;;;;;;5074134;28;20184;-64
2023/12/24 08:45:31;;;;;;;1.60;1.50;;;9.20;48.20;;;;;;5074254;28;20202;-65
2023/12/24 08:47:57;;;;;;;1.50;1.40;;;9.10;47.90;;;;;;5074655;28;20547;-64
2023/12/24 08:50:23;;;;;;;1.57;1.47;;;9.20;48.10;;;;;;5075131;28;20527;-64
2023/12/24 08:52:49;;;;;;;2.00;1.90;;;9.20;48.40;;;;;;5075178;28;20263;-64
2023/12/24 08:55:15;;;;;;;1.70;1.60;;;9.20;48.80;;;;;;5072902;28;20754;-64
2023/12/24 08:57:41;;;;;;;1.63;1.53;;;9.20;49.00;;;;;;5058839;28;20593;-64
2023/12/24 09:00:11;;;;;;;1.87;1.77;;;9.20;48.10;;;;;;5053482;28;20198;-66
2023/12/24 09:02:41;;;;;;;1.60;1.50;;;9.30;48.10;;;;;;5054715;28;20396;-64
2023/12/24 09:05:09;;;;;;;1.80;1.70;;;9.30;48.10;;;;;;5052376;28;20475;-64
2023/12/24 09:07:35;;;;;;;2.53;1.53;;;9.30;48.20;;;;;;5054031;28;20929;-64
2023/12/24 09:10:02;;;;;;;1.90;1.80;;;9.30;48.30;;;;;;5054823;28;20442;-65
2023/12/24 09:12:28;;;;;;;1.70;1.60;;;9.40;47.70;;;;;;5059049;28;20376;-64
2023/12/24 09:14:54;;;;;;;1.60;1.50;;;9.30;46.40;;;;;;5073676;28;20874;-64
2023/12/24 09:17:20;;;;;;;2.07;1.97;;;9.30;46.00;;;;;;5074420;28;20435;-64
2023/12/24 09:19:45;;;;;;;2.27;2.07;;;9.30;45.10;;;;;;5074271;28;20177;-64
2023/12/24 09:22:11;;;;;;;2.43;2.23;;;9.40;45.10;;;;;;5074899;28;20205;-64
2023/12/24 09:24:37;;;;;;;3.63;2.20;;;9.40;44.30;;;;;;5073433;28;20202;-65
2023/12/24 09:27:02;;;;;;;2.90;2.23;;;9.40;44.30;;;;;;5073181;28;20205;-66
2023/12/24 09:29:28;;;;;;;2.10;2.00;;;9.40;44.00;;;;;;5055057;28;20634;-64
2023/12/24 09:31:54;;;;;;;2.37;1.77;;;9.40;44.80;;;;;;5053104;28;20448;-64
2023/12/24 09:34:20;;;;;;;1.90;1.80;;;9.40;44.40;;;;;;5054151;28;20189;-64
2023/12/24 09:36:46;;;;;;;1.77;1.67;;;9.40;44.90;;;;;;5052918;28;20220;-68
2023/12/24 09:39:11;;;;;;;1.87;1.77;;;9.40;44.70;;;;;;5054028;28;20471;-64
2023/12/24 09:41:37;;;;;;;2.73;2.50;;;9.40;45.70;;;;;;5054178;28;20178;-66
2023/12/24 09:44:04;;;;;;;1.93;1.83;;;9.40;45.80;;;;;;5053162;28;20213;-69
2023/12/24 09:46:30;;;;;;;2.70;2.30;;;9.50;46.40;;;;;;5052555;28;20167;-64
2023/12/24 09:48:56;;;;;;;2.67;2.47;;;9.50;46.20;;;;;;5053934;28;20926;-64
2023/12/24 09:51:23;;;;;;;2.67;2.47;;;9.50;46.20;;;;;;5054031;28;20171;-69
2023/12/24 09:53:49;;;;;;;5.73;2.73;;;9.50;46.10;;;;;;5053959;28;20181;-65
2023/12/24 09:56:16;;;;;;;2.27;2.10;;;9.50;46.40;;;;;;5052677;28;20402;-67
2023/12/24 09:58:43;;;;;;;2.90;2.70;;;9.50;46.50;;;;;;5054368;28;20928;-68
2023/12/24 10:01:10;;;;;;;3.53;3.30;;;9.50;46.50;;;;;;5053959;28;20806;-67
2023/12/24 10:03:36;;;;;;;9.33;3.00;;;9.60;46.70;;;;;;5053175;28;20452;-65
2023/12/24 10:06:04;;;;;;;3.37;3.17;;;9.50;46.60;;;;;;5052543;28;20729;-67
2023/12/24 10:08:30;;;;;;;4.13;3.30;;;9.60;46.70;;;;;;5053674;28;20189;-64
2023/12/24 10:11:09;;;;;;;4.23;3.07;;;9.60;46.80;;;;;;5053451;28;20375;-67
2023/12/24 10:13:35;;;;;;;3.17;2.97;;;9.60;46.70;;;;;;5048954;28;20403;-64
2023/12/24 10:16:05;;;;;;;4.33;2.80;;;9.60;46.70;;;;;;5052464;28;20416;-65
2023/12/24 10:18:31;;;;;;;6.23;4.00;;;9.60;46.90;;;;;;5053391;28;20559;-64
2023/12/24 10:21:09;;;;;;;9.80;4.00;;;9.60;46.80;;;;;;5053051;28;20384;-65
2023/12/24 10:23:36;;;;;;;8.77;5.47;;;9.70;47.30;;;;;;5052895;28;20445;-66
2023/12/24 10:26:11;;;;;;;7.03;5.13;;;9.70;47.00;;;;;;5052361;28;20494;-67
2023/12/24 10:28:48;;;;;;;7.40;5.20;;;9.70;46.80;;;;;;5054122;28;20487;-64
2023/12/24 10:31:14;;;;;;;11.80;6.10;;;9.70;46.80;;;;;;5053136;28;20403;-64
2023/12/24 10:33:40;;;;;;;13.03;6.07;;;9.70;46.70;;;;;;5052820;28;20395;-64
2023/12/24 10:36:06;;;;;;;17.30;6.13;;;9.70;46.80;;;;;;5052143;28;20388;-69
2023/12/24 10:38:34;;;;;;;13.90;6.00;;;9.70;47.10;;;;;;5053170;28;20786;-64
2023/12/24 10:41:00;;;;;;;16.10;8.23;;;9.80;47.30;;;;;;5064948;28;20766;-64
2023/12/24 10:43:26;;;;;;;16.53;6.77;;;9.80;48.40;;;;;;5059474;28;20399;-67
2023/12/24 10:45:52;;;;;;;7.63;5.63;;;9.80;46.80;;;;;;5051161;28;20511;-64
2023/12/24 10:48:19;;;;;;;21.13;5.50;;;9.80;47.00;;;;;;5052992;28;20198;-64
2023/12/24 10:50:45;;;;;;;14.90;6.50;;;9.80;47.40;;;;;;5052402;28;20729;-65
2023/12/24 10:53:11;;;;;;;24.90;6.80;;;9.80;47.60;;;;;;5052734;28;20886;-65
2023/12/24 10:55:39;;;;;;;26.13;6.97;;;9.90;47.50;;;;;;5052038;28;20379;-64
2023/12/24 10:58:23;;;;;;;19.90;6.13;;;9.80;47.10;;;;;;5053613;28;21005;-65
2023/12/24 11:00:49;;;;;;;17.07;5.87;;;9.80;47.60;;;;;;5052181;28;20952;-65
2023/12/24 11:03:44;;;;;;;13.00;6.27;;;9.80;48.60;;;;;;5052723;28;20403;-66
2023/12/24 11:06:10;;;;;;;17.50;6.63;;;9.90;50.20;;;;;;5051738;28;20389;-66
2023/12/24 11:08:35;;;;;;;28.20;6.30;;;9.90;50.20;;;;;;5052436;28;20425;-64
2023/12/24 11:11:03;;;;;;;19.27;5.93;;;9.90;50.00;;;;;;5052242;28;20372;-64
2023/12/24 11:13:33;;;;;;;6.83;4.63;;;9.90;50.20;;;;;;5053234;28;20212;-64
2023/12/24 11:16:00;;;;;;;11.87;4.87;;;9.90;50.40;;;;;;5051945;28;20721;-64
2023/12/24 11:18:48;;;;;;;18.07;6.10;;;9.90;50.70;;;;;;5054078;28;20417;-64
2023/12/24 11:21:16;;;;;;;16.03;4.27;;;10.00;49.20;;;;;;5055262;28;20394;-67
2023/12/24 11:24:02;;;;;;;15.60;4.77;;;10.00;47.70;;;;;;5056609;28;20415;-66
2023/12/24 11:26:32;;;;;;;3.80;3.43;;;10.00;47.80;;;;;;5055357;28;20482;-69
2023/12/24 11:29:02;;;;;;;10.07;3.63;;;10.00;46.90;;;;;;5057175;28;20403;-64
2023/12/24 11:31:29;;;;;;;12.30;4.03;;;10.00;45.90;;;;;;5056566;28;20577;-66
2023/12/24 11:33:55;;;;;;;6.93;3.50;;;10.00;45.80;;;;;;5056744;28;20380;-64
2023/12/24 11:36:26;;;;;;;7.27;4.47;;;10.00;44.00;;;;;;5055117;28;20474;-65
2023/12/24 11:38:57;;;;;;;8.80;4.60;;;10.10;42.30;;;;;;5056122;28;20398;-64
2023/12/24 11:41:24;;;;;;;18.33;4.57;;;10.10;39.80;;;;;;5056319;28;20380;-64
2023/12/24 11:44:00;;;;;;;11.53;5.57;;;10.10;38.90;;;;;;5055906;28;20465;-64
2023/12/24 11:46:28;;;;;;;21.20;6.30;;;10.10;37.20;;;;;;5067939;28;20407;-64
2023/12/24 11:48:55;;;;;;;12.10;6.80;;;10.10;36.50;;;;;;5053245;28;20426;-65
2023/12/24 11:51:26;;;;;;;11.50;5.40;;;10.10;36.40;;;;;;5064391;28;20379;-66
2023/12/24 11:53:59;;;;;;;16.60;6.83;;;10.20;37.50;;;;;;5064384;28;20796;-63
2023/12/24 11:56:27;;;;;;;17.63;6.67;;;10.10;34.60;;;;;;5054852;28;20380;-63
2023/12/24 11:58:55;;;;;;;16.20;8.27;;;10.10;36.10;;;;;;5064879;28;20434;-66
2023/12/24 12:01:24;;;;;;;22.80;7.53;;;10.20;36.50;;;;;;5053918;28;20750;-68
2023/12/24 12:04:04;;;;;;;14.37;7.77;;;10.20;35.90;;;;;;5046715;28;20479;-64
2023/12/24 12:06:31;;;;;;;14.80;7.93;;;10.10;35.90;;;;;;5047808;28;20383;-64
2023/12/24 12:08:58;;;;;;;7.37;5.23;;;10.10;35.60;;;;;;5042646;28;20974;-66
2023/12/24 12:11:24;;;;;;;18.37;8.43;;;10.20;35.50;;;;;;5050024;28;20405;-67
2023/12/24 12:13:50;;;;;;;20.50;8.90;;;10.20;36.10;;;;;;5051107;28;20388;-66
2023/12/24 12:16:15;;;;;;;15.77;7.30;;;10.20;36.00;;;;;;5044286;28;20464;-66
2023/12/24 12:18:41;;;;;;;16.10;6.33;;;10.20;37.50;;;;;;5035165;28;20634;-65
2023/12/24 12:21:10;;;;;;;13.13;5.93;;;10.20;36.20;;;;;;5035001;28;20222;-64
2023/12/24 12:23:37;;;;;;;6.93;4.57;;;10.20;35.20;;;;;;5034471;28;20175;-64
2023/12/24 12:26:03;;;;;;;20.53;5.30;;;10.20;30.00;;;;;;5041270;28;20402;-65
2023/12/24 12:28:29;;;;;;;7.47;4.30;;;10.30;28.10;;;;;;5071469;28;20419;-65
2023/12/24 12:30:55;;;;;;;11.03;3.80;;;10.30;26.20;;;;;;5060570;28;20922;-64
2023/12/24 12:33:20;;;;;;;9.23;3.90;;;10.30;24.10;;;;;;5034785;28;20179;-64
2023/12/24 12:35:46;;;;;;;11.83;4.83;;;10.30;23.40;;;;;;5034034;28;20184;-68
2023/12/24 12:38:12;;;;;;;6.50;3.20;;;10.40;24.80;;;;;;5033980;28;20273;-65
2023/12/24 12:40:37;;;;;;;8.63;4.77;;;10.40;21.40;;;;;;5035289;28;20171;-64
2023/12/24 12:43:03;;;;;;;6.27;3.50;;;10.40;20.40;;;;;;5048505;28;20218;-64
2023/12/24 12:45:29;;;;;;;8.97;4.57;;;10.50;20.50;;;;;;5049820;28;20217;-64
2023/12/24 12:47:54;;;;;;;7.40;4.40;;;10.40;16.90;;;;;;5035292;28;20301;-64
2023/12/24 12:50:20;;;;;;;6.03;3.47;;;10.40;15.00;;;;;;5034366;28;20582;-64
2023/12/24 12:52:54;;;;;;;7.13;3.50;;;10.50;13.80;;;;;;5035255;28;20167;-66
2023/12/24 12:55:21;;;;;;;11.20;3.57;;;10.40;11.40;;;;;;5034115;28;20191;-66